Time;durP1;ratioP1;P1;durP2;ratioP2;P2;SDS_P1;SDS_P2;PMS_P1;PMS_P2;Temp;Humidity;BMP_temperature;BMP_pressure;BME280_temperature;BME280_humidity;BME280_pressure;Samples;Min_cycle;Max_cycle;Signal;HPM_P1;HPM_P2
2021/01/14 00:02:25;;;;;;;40.50;22.17;;;-1.90;83.00;;;;;;5096711;28;20095;-88
2021/01/14 00:04:51;;;;;;;49.90;25.55;;;-1.90;83.00;;;;;;5078610;28;20088;-88
2021/01/14 00:07:18;;;;;;;45.17;24.67;;;-1.90;83.00;;;;;;5096943;28;20020;-88
2021/01/14 00:09:44;;;;;;;48.40;25.50;;;-1.90;83.00;;;;;;5099658;28;20079;-87
2021/01/14 00:12:10;;;;;;;49.50;24.45;;;-1.80;83.20;;;;;;5077929;28;20024;-88
2021/01/14 00:14:36;;;;;;;46.30;23.52;;;-1.90;83.10;;;;;;5078558;28;20020;-88
2021/01/14 00:17:02;;;;;;;44.55;23.45;;;-1.80;83.40;;;;;;5078389;28;20034;-88
2021/01/14 00:19:27;;;;;;;44.80;23.05;;;-1.90;83.40;;;;;;5078606;28;20084;-88
2021/01/14 00:21:53;;;;;;;37.53;20.25;;;-1.90;83.60;;;;;;5078427;28;20115;-88
2021/01/14 00:24:19;;;;;;;40.38;21.33;;;-1.90;83.80;;;;;;5096597;28;20016;-88
2021/01/14 00:26:45;;;;;;;40.22;22.40;;;-1.90;83.80;;;;;;5078284;28;20051;-88
2021/01/14 00:29:11;;;;;;;42.40;22.10;;;-1.90;83.70;;;;;;5078447;28;20082;-88
2021/01/14 00:31:37;;;;;;;42.08;20.73;;;-1.90;83.80;;;;;;5078158;28;20035;-88
2021/01/14 00:34:03;;;;;;;46.58;22.50;;;-1.90;83.80;;;;;;5078219;28;20067;-88
2021/01/14 00:36:33;;;;;;;45.60;24.05;;;-1.90;83.60;;;;;;5078211;28;20466;-88
2021/01/14 00:39:03;;;;;;;44.00;21.50;;;-1.90;83.80;;;;;;5095483;28;20071;-88
2021/01/14 00:41:29;;;;;;;37.40;19.80;;;-1.90;83.80;;;;;;5077716;28;20031;-88
2021/01/14 00:43:54;;;;;;;37.05;19.80;;;-1.90;83.70;;;;;;5095969;28;20020;-88
2021/01/14 00:46:21;;;;;;;38.28;17.55;;;-1.90;83.60;;;;;;5077900;28;20020;-88
2021/01/14 00:48:47;;;;;;;40.45;20.02;;;-1.90;83.60;;;;;;5095894;28;20401;-88
2021/01/14 00:51:16;;;;;;;38.53;19.88;;;-1.90;83.60;;;;;;5095805;28;20030;-88
2021/01/14 00:53:42;;;;;;;39.60;20.63;;;-1.90;83.60;;;;;;5077571;28;20086;-88
2021/01/14 00:56:07;;;;;;;38.20;19.00;;;-1.80;83.60;;;;;;5077762;28;20028;-88
2021/01/14 00:58:34;;;;;;;44.67;22.38;;;-1.80;83.70;;;;;;5077581;28;20024;-88
2021/01/14 01:01:00;;;;;;;40.53;21.33;;;-1.80;83.60;;;;;;5077282;28;20032;-88
2021/01/14 01:03:26;;;;;;;44.15;22.77;;;-1.80;83.60;;;;;;5077679;28;20120;-88
2021/01/14 01:05:52;;;;;;;44.60;21.10;;;-1.90;83.70;;;;;;5077517;28;20053;-88
2021/01/14 01:08:18;;;;;;;38.97;20.63;;;-1.90;83.80;;;;;;5077445;28;20414;-88
2021/01/14 01:10:43;;;;;;;40.78;20.58;;;-1.90;83.80;;;;;;5095683;28;20099;-88
2021/01/14 01:13:09;;;;;;;52.20;24.05;;;-1.80;83.80;;;;;;5077354;28;20028;-88
2021/01/14 01:15:35;;;;;;;44.67;22.27;;;-1.90;83.70;;;;;;5077319;28;20032;-88
2021/01/14 01:18:01;;;;;;;45.83;22.70;;;-1.90;83.70;;;;;;5095130;28;20470;-88
2021/01/14 01:20:27;;;;;;;51.35;24.38;;;-1.90;83.70;;;;;;5095134;28;20035;-88
2021/01/14 01:22:56;;;;;;;44.63;23.17;;;-1.90;83.70;;;;;;5094700;28;20020;-88
2021/01/14 01:25:21;;;;;;;55.35;25.73;;;-1.90;84.00;;;;;;5076603;28;20462;-88
2021/01/14 01:27:47;;;;;;;62.53;31.02;;;-1.90;84.20;;;;;;5094393;28;20031;-88
2021/01/14 01:30:13;;;;;;;65.47;33.20;;;-2.00;84.20;;;;;;5077209;28;20530;-88
2021/01/14 01:32:39;;;;;;;58.63;27.77;;;-2.00;84.60;;;;;;5076926;28;20016;-88
2021/01/14 01:35:05;;;;;;;49.50;25.25;;;-2.00;84.40;;;;;;5076823;28;20023;-88
2021/01/14 01:37:31;;;;;;;53.00;25.88;;;-2.00;84.50;;;;;;5076816;28;20511;-88
2021/01/14 01:39:58;;;;;;;51.38;25.88;;;-2.00;84.50;;;;;;5094726;28;20020;-88
2021/01/14 01:42:23;;;;;;;50.35;26.42;;;-2.00;84.50;;;;;;5076875;28;20028;-88
2021/01/14 01:44:49;;;;;;;60.83;30.00;;;-2.00;84.40;;;;;;5094862;28;20070;-88
2021/01/14 01:47:17;;;;;;;69.82;35.28;;;-1.90;84.60;;;;;;5076268;28;20020;-88
2021/01/14 01:49:43;;;;;;;54.50;27.25;;;-2.00;85.10;;;;;;5096819;28;20023;-89
2021/01/14 01:52:09;;;;;;;54.72;27.05;;;-2.00;84.80;;;;;;5076731;28;20032;-88
2021/01/14 01:54:35;;;;;;;61.90;29.85;;;-1.90;84.40;;;;;;5094321;28;20135;-88
2021/01/14 01:57:03;;;;;;;56.33;27.20;;;-2.00;84.70;;;;;;5076254;28;20435;-85
2021/01/14 01:59:31;;;;;;;66.05;32.55;;;-2.00;84.70;;;;;;5094597;28;20054;-87
2021/01/14 02:01:57;;;;;;;62.08;29.58;;;-2.00;85.10;;;;;;5094488;28;20080;-87
2021/01/14 02:04:23;;;;;;;64.78;30.98;;;-2.00;85.10;;;;;;5076507;28;20016;-87
2021/01/14 02:07:07;;;;;;;57.53;27.80;;;-2.00;85.20;;;;;;5094442;28;20177;-90
2021/01/14 02:09:39;;;;;;;59.22;29.42;;;-2.00;85.10;;;;;;5076428;28;20020;-88
2021/01/14 02:12:05;;;;;;;59.00;27.50;;;-2.00;85.00;;;;;;5094780;28;20470;-90
2021/01/14 02:14:34;;;;;;;56.92;28.88;;;-2.00;84.90;;;;;;5076468;28;20165;-90
2021/01/14 02:17:00;;;;;;;63.70;30.38;;;-1.90;85.00;;;;;;5076641;28;20477;-90
2021/01/14 02:19:44;;;;;;;77.13;35.20;;;-2.00;85.20;;;;;;5076756;28;20077;-90
2021/01/14 02:22:18;;;;;;;72.63;34.35;;;-2.00;85.60;;;;;;5076348;28;20027;-90
2021/01/14 02:24:56;;;;;;;64.70;31.08;;;-2.00;85.50;;;;;;5076636;28;20021;-90
2021/01/14 02:27:24;;;;;;;64.78;30.33;;;-2.00;85.40;;;;;;5077196;28;20050;-90
2021/01/14 02:29:52;;;;;;;62.60;28.55;;;-2.00;85.50;;;;;;5076623;28;20024;-90
2021/01/14 02:32:18;;;;;;;61.60;29.42;;;-2.00;85.30;;;;;;5076474;28;20024;-90
2021/01/14 02:34:44;;;;;;;63.60;29.15;;;-2.00;85.30;;;;;;5076732;28;20466;-90
2021/01/14 02:37:10;;;;;;;63.72;30.85;;;-2.00;85.40;;;;;;5076503;28;20031;-90
2021/01/14 02:39:37;;;;;;;53.83;27.85;;;-2.00;85.50;;;;;;5077153;28;20032;-90
2021/01/14 02:42:03;;;;;;;63.22;29.65;;;-1.90;85.20;;;;;;5076276;28;20073;-90
2021/01/14 02:44:28;;;;;;;69.95;33.28;;;-1.90;85.40;;;;;;5076408;28;20032;-90
2021/01/14 02:46:57;;;;;;;59.30;28.13;;;-1.90;85.70;;;;;;5076287;28;20444;-90
2021/01/14 02:49:27;;;;;;;69.13;32.15;;;-1.90;85.50;;;;;;5076136;28;20462;-89
2021/01/14 02:51:57;;;;;;;75.90;35.67;;;-1.90;85.40;;;;;;5076366;28;20097;-90
2021/01/14 02:54:24;;;;;;;60.75;29.90;;;-2.00;85.70;;;;;;5076308;28;20048;-90
2021/01/14 02:56:50;;;;;;;64.13;28.17;;;-2.00;85.60;;;;;;5076334;28;20033;-90
2021/01/14 02:59:16;;;;;;;64.30;28.83;;;-1.90;85.40;;;;;;5076242;28;20031;-90
2021/01/14 03:01:41;;;;;;;60.42;29.55;;;-1.90;85.00;;;;;;5077189;28;20024;-90
2021/01/14 03:04:10;;;;;;;73.10;33.85;;;-1.90;85.20;;;;;;5079802;28;20032;-90
2021/01/14 03:06:36;;;;;;;64.25;30.65;;;-1.90;85.80;;;;;;5079805;28;20027;-90
2021/01/14 03:09:03;;;;;;;64.40;30.45;;;-1.90;85.60;;;;;;5079768;28;20027;-90
2021/01/14 03:11:30;;;;;;;63.15;29.23;;;-1.90;85.70;;;;;;5079543;28;20035;-90
2021/01/14 03:13:56;;;;;;;65.22;30.92;;;-1.90;85.60;;;;;;5079605;28;20477;-90
2021/01/14 03:16:22;;;;;;;78.05;35.95;;;-1.80;85.50;;;;;;5079980;28;20059;-90
2021/01/14 03:18:48;;;;;;;72.97;32.83;;;-1.80;85.50;;;;;;5079493;28;20039;-90
2021/01/14 03:21:22;;;;;;;82.55;35.60;;;-1.90;85.70;;;;;;5079610;28;20032;-90
2021/01/14 03:23:48;;;;;;;71.93;33.40;;;-1.90;85.60;;;;;;5079546;28;20031;-90
2021/01/14 03:26:14;;;;;;;73.03;34.10;;;-1.90;85.80;;;;;;5079563;28;20020;-90
2021/01/14 03:28:40;;;;;;;79.07;35.00;;;-1.90;85.70;;;;;;5079807;28;20073;-92
2021/01/14 03:31:06;;;;;;;79.72;35.85;;;-1.90;85.80;;;;;;5082234;28;20031;-90
2021/01/14 03:33:32;;;;;;;64.85;29.17;;;-1.90;86.00;;;;;;5079280;28;20424;-90
2021/01/14 03:35:58;;;;;;;65.75;29.95;;;-1.90;85.80;;;;;;5079384;28;20028;-90
2021/01/14 03:38:25;;;;;;;56.60;27.25;;;-1.90;85.50;;;;;;5079315;28;20028;-89
2021/01/14 03:40:51;;;;;;;58.03;28.10;;;-1.80;85.30;;;;;;5079197;28;20031;-90
2021/01/14 03:43:16;;;;;;;70.07;29.80;;;-1.80;85.10;;;;;;5097222;28;20028;-90
2021/01/14 03:45:42;;;;;;;69.55;31.13;;;-1.80;84.80;;;;;;5079019;28;20436;-90
2021/01/14 03:48:08;;;;;;;60.53;27.63;;;-1.70;85.20;;;;;;5097301;28;20051;-90
2021/01/14 03:50:34;;;;;;;59.42;29.48;;;-1.70;85.10;;;;;;5097051;28;20363;-90
2021/01/14 03:52:59;;;;;;;69.75;32.10;;;-1.70;84.80;;;;;;5078758;28;20028;-89
2021/01/14 03:55:25;;;;;;;65.80;30.77;;;-1.70;85.10;;;;;;5078694;28;20036;-90
2021/01/14 03:57:51;;;;;;;61.83;27.90;;;-1.70;85.40;;;;;;5096973;28;20146;-90
2021/01/14 04:00:17;;;;;;;61.60;28.80;;;-1.70;85.10;;;;;;5078931;28;20032;-90
2021/01/14 04:02:43;;;;;;;62.53;30.50;;;-1.60;85.10;;;;;;5079672;28;20355;-90
2021/01/14 04:05:09;;;;;;;62.22;29.73;;;-1.60;85.00;;;;;;5096650;28;20028;-90
2021/01/14 04:07:35;;;;;;;68.78;31.88;;;-1.60;85.30;;;;;;5096700;28;20044;-90
2021/01/14 04:10:03;;;;;;;68.45;30.88;;;-1.60;85.50;;;;;;5096869;28;20027;-90
2021/01/14 04:12:29;;;;;;;66.25;32.50;;;-1.60;85.60;;;;;;5078488;28;20096;-90
2021/01/14 04:14:58;;;;;;;66.22;31.60;;;-1.60;85.60;;;;;;5095823;28;20465;-90
2021/01/14 04:17:26;;;;;;;87.15;40.03;;;-1.50;85.40;;;;;;5078709;28;20024;-90
2021/01/14 04:19:53;;;;;;;83.80;40.63;;;-1.60;85.70;;;;;;5078993;28;20101;-90
2021/01/14 04:22:19;;;;;;;83.95;36.30;;;-1.60;86.20;;;;;;5096553;28;20020;-90
2021/01/14 04:24:44;;;;;;;89.65;40.97;;;-1.60;85.80;;;;;;5078462;28;20043;-90
2021/01/14 04:27:10;;;;;;;91.57;41.60;;;-1.60;86.10;;;;;;5096599;28;20024;-90
2021/01/14 04:29:36;;;;;;;90.72;42.10;;;-1.60;86.20;;;;;;5078409;28;20100;-90
2021/01/14 04:32:02;;;;;;;92.85;43.30;;;-1.60;86.50;;;;;;5078588;28;20036;-90
2021/01/14 04:34:28;;;;;;;98.15;42.88;;;-1.60;86.70;;;;;;5078308;28;20496;-90
2021/01/14 04:36:58;;;;;;;87.05;39.95;;;-1.60;86.50;;;;;;5078272;28;20028;-90
2021/01/14 04:39:24;;;;;;;89.53;40.08;;;-1.60;86.60;;;;;;5078401;28;20066;-90
2021/01/14 04:41:55;;;;;;;107.20;45.33;;;-1.60;86.50;;;;;;5078352;28;20434;-90
2021/01/14 04:44:21;;;;;;;100.30;44.53;;;-1.50;86.50;;;;;;5078204;28;20020;-90
2021/01/14 04:46:49;;;;;;;81.85;38.10;;;-1.50;86.50;;;;;;5096367;28;20024;-90
2021/01/14 04:49:17;;;;;;;91.80;43.63;;;-1.50;86.30;;;;;;5095861;28;20481;-86
2021/01/14 04:51:45;;;;;;;98.15;43.83;;;-1.50;86.30;;;;;;5077752;28;20024;-90
2021/01/14 04:54:14;;;;;;;87.95;40.90;;;-1.60;86.50;;;;;;5096634;28;20056;-90
2021/01/14 04:56:40;;;;;;;92.15;43.50;;;-1.60;86.70;;;;;;5088919;28;20067;-89
2021/01/14 04:59:06;;;;;;;94.78;42.22;;;-1.60;86.80;;;;;;5077638;28;20077;-90
2021/01/14 05:01:41;;;;;;;82.30;38.28;;;-1.60;86.70;;;;;;5077620;28;20023;-90
2021/01/14 05:04:09;;;;;;;83.50;36.72;;;-1.60;86.50;;;;;;5077634;28;20039;-90
2021/01/14 05:06:38;;;;;;;95.30;43.53;;;-1.50;86.40;;;;;;5077552;28;20024;-90
2021/01/14 05:09:06;;;;;;;87.15;38.80;;;-1.50;87.30;;;;;;5077562;28;20024;-91
2021/01/14 05:11:51;;;;;;;92.25;42.25;;;-1.50;86.40;;;;;;5107568;28;20024;-91
2021/01/14 05:14:18;;;;;;;78.22;37.10;;;-1.50;86.30;;;;;;5077432;28;20054;-87
2021/01/14 05:16:47;;;;;;;99.47;44.20;;;-1.40;86.40;;;;;;5077307;28;20024;-88
2021/01/14 05:19:13;;;;;;;117.00;51.35;;;-1.40;86.30;;;;;;5095438;28;20031;-88
2021/01/14 05:21:40;;;;;;;102.90;48.03;;;-1.40;87.00;;;;;;5095118;28;20025;-89
2021/01/14 05:24:18;;;;;;;106.65;46.80;;;-1.50;87.10;;;;;;5076953;28;20546;-88
2021/01/14 05:26:46;;;;;;;89.93;41.33;;;-1.50;87.00;;;;;;5076893;28;20024;-89
2021/01/14 05:29:17;;;;;;;89.35;40.53;;;-1.40;87.00;;;;;;5095154;28;20079;-90
2021/01/14 05:31:48;;;;;;;103.20;45.22;;;-1.40;86.80;;;;;;5076986;28;20035;-89
2021/01/14 05:34:14;;;;;;;96.90;44.20;;;-1.40;86.80;;;;;;5095302;28;20073;-89
2021/01/14 05:37:03;;;;;;;96.93;44.40;;;-1.40;87.00;;;;;;5076784;28;20035;-89
2021/01/14 05:39:30;;;;;;;88.03;40.42;;;-1.40;87.00;;;;;;5076962;28;20051;-89
2021/01/14 05:42:08;;;;;;;96.18;42.63;;;-1.40;86.90;;;;;;5095006;28;20045;-90
2021/01/14 05:44:39;;;;;;;88.00;41.10;;;-1.30;86.70;;;;;;5077021;28;20111;-89
2021/01/14 05:47:19;;;;;;;104.93;46.22;;;-1.30;86.80;;;;;;5060259;28;20028;-89
2021/01/14 05:49:57;;;;;;;90.72;40.78;;;-1.30;86.80;;;;;;5060539;28;20024;-89
2021/01/14 05:52:25;;;;;;;105.90;47.70;;;-1.30;86.70;;;;;;5094837;28;20016;-89
2021/01/14 05:55:04;;;;;;;91.13;40.65;;;-1.30;87.10;;;;;;5056725;28;20402;-89
2021/01/14 05:57:33;;;;;;;93.85;42.92;;;-1.30;86.90;;;;;;5071185;28;20097;-89
2021/01/14 06:00:14;;;;;;;111.55;47.90;;;-1.20;87.00;;;;;;5072748;28;20025;-89
2021/01/14 06:02:41;;;;;;;93.63;41.10;;;-1.30;87.30;;;;;;5073536;28;20029;-89
2021/01/14 06:05:32;;;;;;;88.90;38.78;;;-1.30;87.10;;;;;;5073241;28;20036;-89
2021/01/14 06:08:01;;;;;;;91.40;40.38;;;-1.20;87.60;;;;;;5073260;28;20462;-88
2021/01/14 06:10:35;;;;;;;130.88;50.33;;;-1.30;87.70;;;;;;5073860;28;20101;-88
2021/01/14 06:13:02;;;;;;;111.40;45.25;;;-1.30;88.80;;;;;;5056553;28;20474;-88
2021/01/14 06:15:28;;;;;;;129.88;51.38;;;-1.30;88.20;;;;;;5074173;28;20029;-88
2021/01/14 06:17:59;;;;;;;109.38;46.03;;;-1.30;89.50;;;;;;5073382;28;20382;-88
2021/01/14 06:20:27;;;;;;;99.80;41.08;;;-1.30;88.60;;;;;;5056765;28;20467;-88
2021/01/14 06:22:58;;;;;;;97.35;40.40;;;-1.30;88.70;;;;;;5074316;28;20056;-88
2021/01/14 06:25:23;;;;;;;84.35;37.90;;;-1.20;88.60;;;;;;5073545;28;20489;-88
2021/01/14 06:27:56;;;;;;;94.97;37.85;;;-1.20;87.90;;;;;;5073022;28;20104;-88
2021/01/14 06:30:23;;;;;;;99.32;42.42;;;-1.20;88.00;;;;;;5074206;28;20037;-88
2021/01/14 06:33:01;;;;;;;94.47;37.70;;;-1.10;88.40;;;;;;5073174;28;20048;-88
2021/01/14 06:35:27;;;;;;;90.57;38.17;;;-1.10;87.60;;;;;;5073488;28;20035;-88
2021/01/14 06:37:55;;;;;;;116.20;48.05;;;-1.10;87.30;;;;;;5075954;28;20107;-88
2021/01/14 06:40:28;;;;;;;132.95;53.72;;;-1.10;88.70;;;;;;5077258;28;20074;-87
2021/01/14 06:42:57;;;;;;;122.22;48.22;;;-1.10;89.40;;;;;;5078337;28;20073;-88
2021/01/14 06:45:31;;;;;;;113.45;46.42;;;-1.10;89.40;;;;;;5078196;28;20105;-88
2021/01/14 06:48:03;;;;;;;109.88;46.78;;;-1.10;89.30;;;;;;5076466;28;20128;-88
2021/01/14 06:50:31;;;;;;;109.20;43.70;;;-1.00;89.40;;;;;;5077041;28;20020;-88
2021/01/14 06:53:02;;;;;;;122.47;46.45;;;-1.00;88.60;;;;;;5086525;28;20032;-88
2021/01/14 06:55:36;;;;;;;135.63;52.38;;;-0.90;88.30;;;;;;5076552;28;20032;-88
2021/01/14 06:58:14;;;;;;;124.57;47.95;;;-0.90;88.20;;;;;;5076584;28;20028;-88
2021/01/14 07:00:45;;;;;;;134.32;51.67;;;-0.90;88.90;;;;;;5076421;28;20031;-88
2021/01/14 07:03:20;;;;;;;130.02;51.60;;;-0.90;89.10;;;;;;5076538;28;20103;-88
2021/01/14 07:05:55;;;;;;;137.88;54.47;;;-0.80;88.80;;;;;;5074099;28;20032;-88
2021/01/14 07:08:36;;;;;;;135.10;53.03;;;-0.80;89.40;;;;;;5077787;28;20017;-87
2021/01/14 07:11:18;;;;;;;139.55;54.33;;;-0.80;88.50;;;;;;5077603;28;20024;-88
2021/01/14 07:13:50;;;;;;;150.57;60.05;;;-0.70;88.00;;;;;;5077444;28;20024;-88
2021/01/14 07:16:23;;;;;;;150.20;59.28;;;-0.70;88.40;;;;;;5076139;28;20412;-88
2021/01/14 07:18:51;;;;;;;138.93;55.55;;;-0.70;89.50;;;;;;5075942;28;20085;-88
2021/01/14 07:21:41;;;;;;;132.27;53.40;;;-0.70;89.50;;;;;;5075694;28;20123;-88
2021/01/14 07:24:19;;;;;;;152.23;62.63;;;-0.70;89.90;;;;;;5076063;28;20032;-86
2021/01/14 07:27:37;;;;;;;135.20;55.97;;;-0.60;90.00;;;;;;5072119;28;20386;-88
2021/01/14 07:30:05;;;;;;;114.22;47.10;;;-0.60;89.70;;;;;;5070818;28;20056;-87
2021/01/14 07:32:50;;;;;;;128.90;53.67;;;-0.50;89.40;;;;;;5071993;28;20027;-88
2021/01/14 07:35:47;;;;;;;120.63;48.72;;;-0.50;89.50;;;;;;5070660;28;20439;-88
2021/01/14 07:38:18;;;;;;;128.02;53.97;;;-0.40;89.90;;;;;;5070616;28;20021;-88
2021/01/14 07:40:44;;;;;;;;;;;-0.40;89.40;;;;;;5070758;28;20056;-89
2021/01/14 07:43:13;;;;;;;109.55;46.13;;;-0.40;89.90;;;;;;5071602;28;19944;-89
2021/01/14 07:45:39;;;;;;;103.63;42.45;;;-0.40;89.40;;;;;;5071249;28;20029;-86
2021/01/14 07:48:18;;;;;;;163.23;70.20;;;-0.30;89.00;;;;;;5070783;28;20028;-89
2021/01/14 07:51:03;;;;;;;109.72;49.75;;;-0.40;89.80;;;;;;5070279;28;20386;-92
2021/01/14 07:53:29;;;;;;;143.20;65.57;;;-0.30;89.30;;;;;;5070573;28;20035;-92
2021/01/14 07:55:55;;;;;;;128.45;57.80;;;-0.30;88.90;;;;;;5071525;28;20039;-92
2021/01/14 07:58:23;;;;;;;121.75;57.33;;;-0.20;88.80;;;;;;5070179;28;20025;-91
2021/01/14 08:01:09;;;;;;;100.43;43.75;;;-0.20;88.70;;;;;;5070090;28;20029;-92
2021/01/14 08:03:39;;;;;;;111.18;51.50;;;-0.10;88.30;;;;;;5071453;28;20470;-89
2021/01/14 08:06:29;;;;;;;100.13;47.53;;;-0.10;88.10;;;;;;5069755;28;20052;-89
2021/01/14 08:08:59;;;;;;;99.20;45.08;;;-0.10;88.10;;;;;;5070149;28;20025;-90
2021/01/14 08:11:27;;;;;;;139.77;64.18;;;0.00;87.90;;;;;;5071062;28;20378;-89
2021/01/14 08:14:11;;;;;;;146.02;70.15;;;0.00;88.10;;;;;;5071293;28;20025;-88
2021/01/14 08:16:56;;;;;;;110.45;51.03;;;0.00;88.30;;;;;;5069710;28;20124;-89
2021/01/14 08:19:42;;;;;;;155.88;77.10;;;0.00;88.00;;;;;;5070948;28;20409;-89
2021/01/14 08:22:10;;;;;;;154.70;75.90;;;0.00;88.20;;;;;;5070096;28;20421;-90
2021/01/14 08:24:46;;;;;;;137.75;68.65;;;0.00;88.30;;;;;;5069965;28;20078;-90
2021/01/14 08:27:13;;;;;;;131.65;61.67;;;0.00;88.10;;;;;;5069733;28;20045;-89
2021/01/14 08:29:40;;;;;;;124.70;60.30;;;0.00;88.30;;;;;;5071138;28;20025;-89
2021/01/14 08:32:43;;;;;;;129.15;57.72;;;0.00;88.60;;;;;;5084372;28;20028;-87
2021/01/14 08:35:15;;;;;;;107.68;49.65;;;0.00;88.40;;;;;;5071384;28;20036;-90
2021/01/14 08:37:43;;;;;;;124.20;56.47;;;0.10;88.30;;;;;;5063444;28;20024;-90
2021/01/14 08:40:24;;;;;;;118.38;50.90;;;0.10;88.00;;;;;;5056404;28;20021;-89
2021/01/14 08:43:13;;;;;;;111.45;47.85;;;0.20;88.40;;;;;;5056210;28;20067;-89
2021/01/14 08:45:47;;;;;;;126.35;56.40;;;0.20;88.30;;;;;;5057056;28;20110;-89
2021/01/14 08:48:26;;;;;;;137.68;61.13;;;0.20;88.10;;;;;;5056913;28;20435;-89
2021/01/14 08:50:54;;;;;;;124.65;57.80;;;0.20;88.10;;;;;;5056745;28;20675;-89
2021/01/14 08:53:26;;;;;;;109.75;45.58;;;0.20;88.10;;;;;;5055766;28;20021;-90
2021/01/14 08:56:04;;;;;;;110.10;51.90;;;0.20;87.90;;;;;;5055806;28;20056;-88
2021/01/14 08:58:51;;;;;;;130.77;54.50;;;0.20;87.60;;;;;;5057024;28;20057;-89
2021/01/14 09:01:22;;;;;;;109.70;51.05;;;0.30;87.80;;;;;;5056923;28;20025;-90
2021/01/14 09:03:50;;;;;;;130.63;61.13;;;0.30;87.70;;;;;;5058208;28;20028;-89
2021/01/14 09:06:27;;;;;;;270.92;128.70;;;0.30;87.80;;;;;;5055234;28;20025;-89
2021/01/14 09:08:54;;;;;;;214.10;103.47;;;0.30;87.80;;;;;;5055524;28;20116;-89
2021/01/14 09:11:27;;;;;;;129.57;61.13;;;0.40;87.70;;;;;;5055478;28;20025;-88
2021/01/14 09:14:03;;;;;;;93.00;44.40;;;0.40;87.50;;;;;;5055334;28;20348;-87
2021/01/14 09:16:29;;;;;;;124.40;55.20;;;0.50;87.40;;;;;;5056273;28;20033;-87
2021/01/14 09:18:54;;;;;;;82.05;39.10;;;0.50;87.00;;;;;;5055344;28;20036;-88
2021/01/14 09:21:20;;;;;;;75.03;36.63;;;0.60;86.90;;;;;;5055282;28;20035;-87
2021/01/14 09:23:46;;;;;;;103.13;50.75;;;0.60;86.50;;;;;;5055368;28;20679;-87
2021/01/14 09:26:14;;;;;;;88.05;43.35;;;0.60;86.30;;;;;;5054765;28;20064;-87
2021/01/14 09:28:41;;;;;;;75.40;38.72;;;0.60;86.30;;;;;;5055120;28;20833;-88
2021/01/14 09:31:11;;;;;;;81.50;41.35;;;0.60;86.50;;;;;;5055035;28;20066;-88
2021/01/14 09:33:42;;;;;;;132.38;61.60;;;0.60;86.20;;;;;;5056141;28;20344;-88
2021/01/14 09:36:20;;;;;;;169.18;80.30;;;0.70;86.00;;;;;;5054892;28;20548;-87
2021/01/14 09:38:55;;;;;;;106.68;49.42;;;0.70;85.70;;;;;;5055167;28;20115;-88
2021/01/14 09:41:26;;;;;;;98.40;50.47;;;0.70;86.10;;;;;;5055016;28;20074;-88
2021/01/14 09:43:54;;;;;;;72.35;37.90;;;0.70;86.10;;;;;;5055057;28;20031;-88
2021/01/14 09:46:23;;;;;;;67.47;34.42;;;0.70;86.00;;;;;;5054885;28;20443;-88
2021/01/14 09:48:55;;;;;;;69.80;32.65;;;0.70;85.70;;;;;;5054502;28;20021;-89
2021/01/14 09:51:21;;;;;;;59.35;30.35;;;0.80;85.60;;;;;;5054802;28;20470;-88
2021/01/14 09:53:48;;;;;;;72.25;36.95;;;0.80;85.60;;;;;;5056503;28;20017;-88
2021/01/14 09:56:25;;;;;;;64.30;34.90;;;0.80;85.30;;;;;;5056230;28;20025;-88
2021/01/14 09:58:56;;;;;;;62.70;31.92;;;0.80;85.30;;;;;;5056160;28;20021;-88
2021/01/14 10:01:27;;;;;;;67.32;34.55;;;0.80;85.30;;;;;;5055858;28;20052;-89
2021/01/14 10:04:06;;;;;;;60.75;31.05;;;0.80;85.20;;;;;;5055110;28;20017;-88
2021/01/14 10:06:38;;;;;;;62.05;32.53;;;0.80;85.40;;;;;;5054719;28;20025;-88
2021/01/14 10:09:05;;;;;;;58.03;29.98;;;0.70;84.80;;;;;;5055631;28;20025;-89
2021/01/14 10:11:32;;;;;;;62.88;32.00;;;0.70;85.40;;;;;;5059998;28;20021;-89
2021/01/14 10:13:58;;;;;;;59.03;30.95;;;0.70;84.70;;;;;;5068162;28;20017;-90
2021/01/14 10:16:24;;;;;;;55.85;29.15;;;0.70;85.30;;;;;;5056012;28;20523;-89
2021/01/14 10:18:50;;;;;;;55.97;28.70;;;0.70;85.10;;;;;;5054337;28;20474;-90
2021/01/14 10:21:23;;;;;;;63.85;33.10;;;0.70;85.20;;;;;;5054242;28;20079;-90
2021/01/14 10:23:50;;;;;;;60.53;32.83;;;0.80;85.30;;;;;;5054264;28;20063;-91
2021/01/14 10:26:25;;;;;;;56.63;30.10;;;0.70;85.20;;;;;;5054097;28;20044;-91
2021/01/14 10:28:51;;;;;;;55.88;28.52;;;0.60;85.00;;;;;;5054302;28;20087;-89
2021/01/14 10:31:33;;;;;;;54.30;29.90;;;0.60;85.00;;;;;;5053843;28;20471;-90
2021/01/14 10:33:59;;;;;;;55.55;28.80;;;0.60;84.70;;;;;;5055103;28;20031;-89
2021/01/14 10:36:43;;;;;;;48.00;25.67;;;0.70;85.00;;;;;;5053843;28;20021;-89
2021/01/14 10:39:09;;;;;;;53.45;28.63;;;0.80;84.70;;;;;;5055056;28;20104;-89
2021/01/14 10:41:34;;;;;;;56.10;28.55;;;0.80;84.60;;;;;;5054975;28;20056;-88
2021/01/14 10:44:05;;;;;;;48.00;25.92;;;0.90;84.30;;;;;;5054924;28;20029;-87
2021/01/14 10:46:31;;;;;;;;;;;0.80;83.70;;;;;;5054405;28;20078;-88
2021/01/14 10:49:10;;;;;;;37.35;20.88;;;0.90;84.10;;;;;;5054175;28;19909;-87
2021/01/14 10:51:37;;;;;;;49.35;27.92;;;0.90;84.00;;;;;;5054586;28;20021;-88
2021/01/14 10:54:03;;;;;;;46.67;25.20;;;0.90;83.00;;;;;;5053882;28;20048;-88
2021/01/14 10:56:28;;;;;;;56.53;30.02;;;0.90;83.50;;;;;;5054684;28;20063;-88
2021/01/14 10:58:56;;;;;;;45.38;23.95;;;0.90;83.40;;;;;;5053646;28;20029;-88
2021/01/14 11:01:22;;;;;;;48.30;28.40;;;1.00;83.90;;;;;;5054356;28;20055;-88
2021/01/14 11:03:49;;;;;;;55.42;28.42;;;1.00;83.30;;;;;;5053818;28;20021;-88
2021/01/14 11:06:32;;;;;;;53.90;29.42;;;0.80;83.00;;;;;;5053507;28;20152;-88
2021/01/14 11:09:00;;;;;;;50.45;28.08;;;0.90;83.50;;;;;;5053906;28;20049;-89
2021/01/14 11:11:26;;;;;;;43.40;24.08;;;0.80;83.30;;;;;;5053454;28;20029;-89
2021/01/14 11:13:52;;;;;;;38.30;21.60;;;0.90;83.50;;;;;;5053535;28;20108;-89
2021/01/14 11:16:25;;;;;;;44.83;24.50;;;0.90;83.50;;;;;;5053559;28;20170;-88
2021/01/14 11:18:52;;;;;;;39.97;21.23;;;0.90;82.90;;;;;;5054577;28;20356;-88
2021/01/14 11:21:29;;;;;;;41.05;22.30;;;1.00;83.00;;;;;;5054439;28;20035;-88
2021/01/14 11:23:59;;;;;;;40.70;23.02;;;0.90;82.80;;;;;;5054413;28;20021;-88
2021/01/14 11:26:25;;;;;;;33.70;18.50;;;0.90;82.60;;;;;;5055006;28;20045;-87
2021/01/14 11:28:52;;;;;;;30.63;18.30;;;0.90;82.80;;;;;;5054327;28;20033;-89
2021/01/14 11:31:23;;;;;;;27.85;17.20;;;0.90;82.90;;;;;;5054596;28;20025;-86
2021/01/14 11:33:49;;;;;;;33.20;18.30;;;1.00;82.90;;;;;;5053207;28;20124;-87
2021/01/14 12:10:27;;;;;;;38.90;21.70;;;0.70;80.80;;;;;;5153428;27;20927;-84
2021/01/14 12:12:53;;;;;;;36.25;20.65;;;1.50;80.70;;;;;;5151232;27;20023;-84
2021/01/14 12:15:18;;;;;;;44.40;24.65;;;1.50;80.90;;;;;;5151245;27;20027;-84
2021/01/14 12:17:44;;;;;;;45.10;25.70;;;1.40;80.90;;;;;;5185943;27;20431;-84
2021/01/14 12:20:10;;;;;;;40.50;22.08;;;1.30;80.40;;;;;;5151289;27;20468;-84
2021/01/14 12:22:39;;;;;;;38.83;22.25;;;1.20;81.30;;;;;;5152412;27;20023;-83
2021/01/14 12:25:10;;;;;;;36.47;20.77;;;1.20;80.90;;;;;;5151318;27;20053;-83
2021/01/14 12:27:37;;;;;;;32.15;17.95;;;1.10;81.50;;;;;;5152527;27;20050;-84
2021/01/14 12:30:04;;;;;;;37.65;20.58;;;1.10;81.80;;;;;;5151030;27;20019;-83
2021/01/14 12:32:30;;;;;;;38.53;21.13;;;1.10;81.50;;;;;;5152144;27;20057;-85
2021/01/14 12:34:56;;;;;;;35.72;20.67;;;1.00;81.20;;;;;;5186014;27;20023;-86
2021/01/14 12:37:22;;;;;;;43.95;24.33;;;1.00;81.80;;;;;;5152518;27;20372;-86
2021/01/14 12:39:48;;;;;;;42.40;24.77;;;0.90;82.10;;;;;;5152529;27;20023;-86
2021/01/14 12:42:13;;;;;;;37.15;21.95;;;0.70;82.20;;;;;;5185960;27;20015;-85
2021/01/14 12:44:39;;;;;;;45.45;22.42;;;0.80;82.60;;;;;;5151083;27;20023;-86
2021/01/14 12:47:05;;;;;;;39.72;21.90;;;0.80;81.80;;;;;;5185859;27;20371;-86
2021/01/14 12:49:31;;;;;;;40.10;23.15;;;0.80;81.90;;;;;;5185981;27;20031;-86
2021/01/14 12:51:57;;;;;;;38.78;23.30;;;0.80;81.30;;;;;;5152122;27;20026;-85
2021/01/14 12:54:22;;;;;;;38.65;21.15;;;0.70;81.80;;;;;;5185438;27;20033;-85
2021/01/14 12:56:49;;;;;;;39.42;21.17;;;0.70;82.10;;;;;;5152060;27;20051;-86
2021/01/14 12:59:15;;;;;;;38.35;22.15;;;0.70;82.20;;;;;;5152083;27;20464;-87
2021/01/14 13:01:40;;;;;;;44.08;23.23;;;0.80;82.30;;;;;;5185717;27;20014;-86
2021/01/14 13:04:09;;;;;;;43.72;24.33;;;0.80;82.00;;;;;;5185868;27;20023;-86
2021/01/14 13:06:36;;;;;;;53.63;28.83;;;0.70;82.20;;;;;;5150975;27;20376;-86
2021/01/14 13:09:05;;;;;;;56.92;30.88;;;0.70;82.00;;;;;;5151550;27;20050;-86
2021/01/14 13:11:30;;;;;;;55.17;30.42;;;0.60;82.10;;;;;;5136537;27;20051;-86
2021/01/14 13:13:58;;;;;;;41.38;23.80;;;0.60;82.30;;;;;;5137786;27;20050;-86
2021/01/14 13:16:42;;;;;;;59.50;28.67;;;0.60;82.40;;;;;;5136805;27;20050;-86